sensor_id;sensor_type;location;lat;lon;timestamp;pressure;altitude;pressure_sealevel;temperature;humidity
56668;BME280;42542;48.360;10.958;2023-01-10T00:01:13;95699.56;;;4.04;93.61
56668;BME280;42542;48.360;10.958;2023-01-10T00:04:15;95704.72;;;4.06;94.16
56668;BME280;42542;48.360;10.958;2023-01-10T00:07:17;95720.22;;;4.10;94.04
56668;BME280;42542;48.360;10.958;2023-01-10T00:10:18;95724.25;;;4.14;93.70
56668;BME280;42542;48.360;10.958;2023-01-10T00:13:20;95727.03;;;4.13;93.34
56668;BME280;42542;48.360;10.958;2023-01-10T00:16:25;95732.19;;;4.14;93.03
56668;BME280;42542;48.360;10.958;2023-01-10T00:19:26;95727.88;;;4.13;93.18
56668;BME280;42542;48.360;10.958;2023-01-10T00:22:28;95731.47;;;4.12;92.86
56668;BME280;42542;48.360;10.958;2023-01-10T00:25:30;95735.38;;;4.08;92.95
56668;BME280;42542;48.360;10.958;2023-01-10T00:28:33;95747.34;;;4.12;92.63
56668;BME280;42542;48.360;10.958;2023-01-10T00:31:35;95752.63;;;4.12;92.50
56668;BME280;42542;48.360;10.958;2023-01-10T00:34:36;95754.19;;;4.15;93.15
56668;BME280;42542;48.360;10.958;2023-01-10T00:37:39;95762.97;;;4.15;93.02
56668;BME280;42542;48.360;10.958;2023-01-10T00:40:40;95760.44;;;4.14;93.03
56668;BME280;42542;48.360;10.958;2023-01-10T00:43:42;95765.03;;;4.12;92.53
56668;BME280;42542;48.360;10.958;2023-01-10T00:46:59;95775.47;;;4.13;93.05
56668;BME280;42542;48.360;10.958;2023-01-10T00:50:00;95776.19;;;4.15;92.80
56668;BME280;42542;48.360;10.958;2023-01-10T00:53:02;95788.69;;;4.13;92.83
56668;BME280;42542;48.360;10.958;2023-01-10T00:56:04;95790.50;;;4.13;92.98
56668;BME280;42542;48.360;10.958;2023-01-10T00:59:06;95785.09;;;4.14;93.17
56668;BME280;42542;48.360;10.958;2023-01-10T01:02:08;95795.66;;;4.14;92.81
56668;BME280;42542;48.360;10.958;2023-01-10T01:05:09;95798.31;;;4.14;92.67
56668;BME280;42542;48.360;10.958;2023-01-10T01:08:12;95802.75;;;4.14;92.74
56668;BME280;42542;48.360;10.958;2023-01-10T01:11:14;95819.47;;;4.14;93.04
56668;BME280;42542;48.360;10.958;2023-01-10T01:14:16;95817.91;;;4.12;92.35
56668;BME280;42542;48.360;10.958;2023-01-10T01:17:18;95826.69;;;4.12;92.52
56668;BME280;42542;48.360;10.958;2023-01-10T01:20:19;95835.59;;;4.11;92.90
56668;BME280;42542;48.360;10.958;2023-01-10T01:23:22;95837.28;;;4.12;92.91
56668;BME280;42542;48.360;10.958;2023-01-10T01:26:25;95841.88;;;4.10;93.04
56668;BME280;42542;48.360;10.958;2023-01-10T01:29:26;95854.94;;;4.12;93.04
56668;BME280;42542;48.360;10.958;2023-01-10T01:32:42;95855.09;;;4.10;93.80
56668;BME280;42542;48.360;10.958;2023-01-10T01:35:46;95858.84;;;4.08;93.99
56668;BME280;42542;48.360;10.958;2023-01-10T01:38:48;95858.00;;;4.07;94.04
56668;BME280;42542;48.360;10.958;2023-01-10T01:41:49;95849.63;;;4.02;94.89
56668;BME280;42542;48.360;10.958;2023-01-10T01:48:14;95854.31;;;3.99;95.05
56668;BME280;42542;48.360;10.958;2023-01-10T01:51:22;95859.63;;;3.99;94.76
56668;BME280;42542;48.360;10.958;2023-01-10T01:54:27;95862.78;;;3.92;94.61
56668;BME280;42542;48.360;10.958;2023-01-10T01:57:31;95866.97;;;3.95;94.95
56668;BME280;42542;48.360;10.958;2023-01-10T02:00:33;95872.41;;;3.93;94.28
56668;BME280;42542;48.360;10.958;2023-01-10T02:03:36;95866.50;;;3.90;94.05
56668;BME280;42542;48.360;10.958;2023-01-10T02:06:40;95877.81;;;3.92;94.43
56668;BME280;42542;48.360;10.958;2023-01-10T02:09:52;95883.09;;;3.92;94.72
56668;BME280;42542;48.360;10.958;2023-01-10T02:12:57;95881.28;;;3.92;95.07
56668;BME280;42542;48.360;10.958;2023-01-10T02:16:01;95883.38;;;3.89;94.81
56668;BME280;42542;48.360;10.958;2023-01-10T02:19:06;95879.16;;;3.86;94.11
56668;BME280;42542;48.360;10.958;2023-01-10T02:29:17;95881.63;;;3.78;94.27
56668;BME280;42542;48.360;10.958;2023-01-10T02:32:39;95896.63;;;3.78;94.10
56668;BME280;42542;48.360;10.958;2023-01-10T02:36:08;95893.16;;;3.77;94.16
56668;BME280;42542;48.360;10.958;2023-01-10T02:39:20;95901.09;;;3.77;94.36
56668;BME280;42542;48.360;10.958;2023-01-10T02:42:33;95905.53;;;3.77;94.74
56668;BME280;42542;48.360;10.958;2023-01-10T02:45:43;95920.56;;;3.76;94.18
56668;BME280;42542;48.360;10.958;2023-01-10T02:48:47;95920.56;;;3.76;94.64
56668;BME280;42542;48.360;10.958;2023-01-10T02:51:49;95935.56;;;3.76;94.51
56668;BME280;42542;48.360;10.958;2023-01-10T02:54:54;95942.53;;;3.77;94.74
56668;BME280;42542;48.360;10.958;2023-01-10T03:01:58;95943.50;;;3.76;95.24
56668;BME280;42542;48.360;10.958;2023-01-10T03:08:42;95960.19;;;3.76;95.07
56668;BME280;42542;48.360;10.958;2023-01-10T03:11:47;95961.16;;;3.75;94.57
56668;BME280;42542;48.360;10.958;2023-01-10T03:14:53;95962.84;;;3.76;94.91
56668;BME280;42542;48.360;10.958;2023-01-10T03:17:59;95970.91;;;3.75;94.84
56668;BME280;42542;48.360;10.958;2023-01-10T03:21:03;95962.72;;;3.78;95.00
56668;BME280;42542;48.360;10.958;2023-01-10T03:24:15;95978.47;;;3.79;95.26
56668;BME280;42542;48.360;10.958;2023-01-10T03:33:29;95983.88;;;3.78;94.87
56668;BME280;42542;48.360;10.958;2023-01-10T03:46:51;96024.81;;;3.83;94.71
56668;BME280;42542;48.360;10.958;2023-01-10T03:50:00;96038.16;;;3.82;94.84
56668;BME280;42542;48.360;10.958;2023-01-10T03:53:05;96042.63;;;3.81;95.43
56668;BME280;42542;48.360;10.958;2023-01-10T03:56:07;96040.69;;;3.83;95.39
56668;BME280;42542;48.360;10.958;2023-01-10T03:59:13;96040.81;;;3.82;95.16
56668;BME280;42542;48.360;10.958;2023-01-10T04:02:16;96053.22;;;3.81;95.65
56668;BME280;42542;48.360;10.958;2023-01-10T04:05:17;96057.66;;;3.81;95.41
56668;BME280;42542;48.360;10.958;2023-01-10T04:08:20;96071.56;;;3.83;95.97
56668;BME280;42542;48.360;10.958;2023-01-10T04:11:21;96072.41;;;3.83;96.23
56668;BME280;42542;48.360;10.958;2023-01-10T04:14:24;96073.38;;;3.82;96.43
56668;BME280;42542;48.360;10.958;2023-01-10T04:17:26;96074.22;;;3.83;97.08
56668;BME280;42542;48.360;10.958;2023-01-10T04:20:27;96086.75;;;3.81;97.79
56668;BME280;42542;48.360;10.958;2023-01-10T04:23:29;96097.16;;;3.82;97.01
56668;BME280;42542;48.360;10.958;2023-01-10T04:26:31;96099.13;;;3.80;96.89
56668;BME280;42542;48.360;10.958;2023-01-10T04:29:33;96107.88;;;3.81;97.20
56668;BME280;42542;48.360;10.958;2023-01-10T04:32:35;96114.97;;;3.80;96.94
56668;BME280;42542;48.360;10.958;2023-01-10T04:35:37;96123.13;;;3.77;97.30
56668;BME280;42542;48.360;10.958;2023-01-10T04:38:39;96130.34;;;3.75;97.43
56668;BME280;42542;48.360;10.958;2023-01-10T04:41:41;96128.44;;;3.77;97.65
56668;BME280;42542;48.360;10.958;2023-01-10T04:44:43;96136.38;;;3.77;97.67
56668;BME280;42542;48.360;10.958;2023-01-10T04:47:51;96125.78;;;3.77;97.86
56668;BME280;42542;48.360;10.958;2023-01-10T04:50:56;96139.13;;;3.76;98.22
56668;BME280;42542;48.360;10.958;2023-01-10T04:53:58;96145.50;;;3.73;97.87
56668;BME280;42542;48.360;10.958;2023-01-10T04:57:00;96152.47;;;3.74;98.23
56668;BME280;42542;48.360;10.958;2023-01-10T05:00:03;96156.31;;;3.70;97.56
56668;BME280;42542;48.360;10.958;2023-01-10T05:03:05;96163.53;;;3.68;97.88
56668;BME280;42542;48.360;10.958;2023-01-10T05:06:07;96173.41;;;3.66;97.95
56668;BME280;42542;48.360;10.958;2023-01-10T05:09:09;96178.78;;;3.65;97.40
56668;BME280;42542;48.360;10.958;2023-01-10T05:12:10;96178.19;;;3.61;97.13
56668;BME280;42542;48.360;10.958;2023-01-10T05:15:12;96192.97;;;3.64;97.51
56668;BME280;42542;48.360;10.958;2023-01-10T05:18:15;96200.78;;;3.65;97.49
56668;BME280;42542;48.360;10.958;2023-01-10T05:21:17;96198.13;;;3.65;97.44
56668;BME280;42542;48.360;10.958;2023-01-10T05:24:18;96209.78;;;3.63;97.47
56668;BME280;42542;48.360;10.958;2023-01-10T05:27:20;96207.13;;;3.63;96.82
56668;BME280;42542;48.360;10.958;2023-01-10T05:30:22;96218.66;;;3.62;96.86
56668;BME280;42542;48.360;10.958;2023-01-10T05:33:24;96222.88;;;3.64;96.24
56668;BME280;42542;48.360;10.958;2023-01-10T05:36:26;96223.84;;;3.63;97.00
56668;BME280;42542;48.360;10.958;2023-01-10T05:39:27;96225.75;;;3.61;96.77
56668;BME280;42542;48.360;10.958;2023-01-10T05:42:29;96239.97;;;3.60;97.00
56668;BME280;42542;48.360;10.958;2023-01-10T05:45:31;96249.44;;;3.63;96.56
56668;BME280;42542;48.360;10.958;2023-01-10T05:48:34;96260.97;;;3.62;97.02
56668;BME280;42542;48.360;10.958;2023-01-10T05:51:35;96268.78;;;3.63;97.00
56668;BME280;42542;48.360;10.958;2023-01-10T05:54:37;96268.03;;;3.61;96.05
56668;BME280;42542;48.360;10.958;2023-01-10T05:57:39;96270.94;;;3.58;95.89
56668;BME280;42542;48.360;10.958;2023-01-10T06:00:40;96285.47;;;3.52;96.40
56668;BME280;42542;48.360;10.958;2023-01-10T06:03:42;96288.94;;;3.53;96.43
56668;BME280;42542;48.360;10.958;2023-01-10T06:06:45;96305.63;;;3.53;96.79
56668;BME280;42542;48.360;10.958;2023-01-10T06:09:46;96305.88;;;3.50;96.60
56668;BME280;42542;48.360;10.958;2023-01-10T06:12:48;96313.81;;;3.50;97.33
56668;BME280;42542;48.360;10.958;2023-01-10T06:15:50;96319.09;;;3.50;97.19
56668;BME280;42542;48.360;10.958;2023-01-10T06:18:53;96329.88;;;3.47;97.09
56668;BME280;42542;48.360;10.958;2023-01-10T06:21:54;96332.63;;;3.46;96.89
56668;BME280;42542;48.360;10.958;2023-01-10T06:24:56;96335.16;;;3.47;97.15
56668;BME280;42542;48.360;10.958;2023-01-10T06:27:58;96350.19;;;3.47;96.92
56668;BME280;42542;48.360;10.958;2023-01-10T06:31:00;96351.88;;;3.48;97.39
56668;BME280;42542;48.360;10.958;2023-01-10T06:34:02;96367.59;;;3.49;96.95
56668;BME280;42542;48.360;10.958;2023-01-10T06:37:04;96365.91;;;3.48;97.46
56668;BME280;42542;48.360;10.958;2023-01-10T06:40:06;96376.75;;;3.45;96.66
56668;BME280;42542;48.360;10.958;2023-01-10T06:43:08;96383.94;;;3.43;97.12
56668;BME280;42542;48.360;10.958;2023-01-10T06:46:14;96400.53;;;3.45;97.67
56668;BME280;42542;48.360;10.958;2023-01-10T06:49:17;96410.09;;;3.46;97.48
56668;BME280;42542;48.360;10.958;2023-01-10T06:52:19;96423.09;;;3.49;97.58
56668;BME280;42542;48.360;10.958;2023-01-10T06:55:20;96430.28;;;3.47;97.22
56668;BME280;42542;48.360;10.958;2023-01-10T06:58:23;96441.50;;;3.51;97.11
56668;BME280;42542;48.360;10.958;2023-01-10T07:01:25;96451.22;;;3.50;97.04
56668;BME280;42542;48.360;10.958;2023-01-10T07:04:28;96460.00;;;3.51;96.85
56668;BME280;42542;48.360;10.958;2023-01-10T07:07:30;96466.97;;;3.52;97.12
56668;BME280;42542;48.360;10.958;2023-01-10T07:10:31;96476.69;;;3.51;96.71
56668;BME280;42542;48.360;10.958;2023-01-10T07:13:34;96480.78;;;3.56;96.91
56668;BME280;42542;48.360;10.958;2023-01-10T07:16:35;96485.97;;;3.57;96.27
56668;BME280;42542;48.360;10.958;2023-01-10T07:19:39;96485.88;;;3.59;96.27
56668;BME280;42542;48.360;10.958;2023-01-10T07:22:40;96494.63;;;3.59;96.45
56668;BME280;42542;48.360;10.958;2023-01-10T07:25:42;96505.22;;;3.59;95.62
56668;BME280;42542;48.360;10.958;2023-01-10T07:28:46;96501.63;;;3.60;95.85
56668;BME280;42542;48.360;10.958;2023-01-10T07:31:51;96525.28;;;3.62;95.52
56668;BME280;42542;48.360;10.958;2023-01-10T07:34:53;96527.81;;;3.63;95.49
56668;BME280;42542;48.360;10.958;2023-01-10T07:37:59;96540.91;;;3.65;95.89
56668;BME280;42542;48.360;10.958;2023-01-10T07:41:01;96545.25;;;3.66;95.95
56668;BME280;42542;48.360;10.958;2023-01-10T07:44:04;96552.34;;;3.65;95.85
56668;BME280;42542;48.360;10.958;2023-01-10T07:47:06;96555.81;;;3.66;95.60
56668;BME280;42542;48.360;10.958;2023-01-10T07:50:08;96555.28;;;3.61;96.24
56668;BME280;42542;48.360;10.958;2023-01-10T07:53:11;96563.47;;;3.58;95.93
56668;BME280;42542;48.360;10.958;2023-01-10T07:56:13;96582.91;;;3.57;95.39
56668;BME280;42542;48.360;10.958;2023-01-10T07:59:15;96574.94;;;3.45;96.58
56668;BME280;42542;48.360;10.958;2023-01-10T08:02:17;96589.41;;;3.40;96.60
56668;BME280;42542;48.360;10.958;2023-01-10T08:05:19;96594.38;;;3.32;96.68
56668;BME280;42542;48.360;10.958;2023-01-10T08:08:20;96598.31;;;3.26;97.85
56668;BME280;42542;48.360;10.958;2023-01-10T08:11:24;96609.41;;;3.19;98.32
56668;BME280;42542;48.360;10.958;2023-01-10T08:14:25;96611.34;;;3.17;98.12
56668;BME280;42542;48.360;10.958;2023-01-10T08:17:27;96606.16;;;3.15;98.74
56668;BME280;42542;48.360;10.958;2023-01-10T08:20:29;96608.78;;;3.15;99.02
56668;BME280;42542;48.360;10.958;2023-01-10T08:23:31;96615.78;;;3.16;99.44
56668;BME280;42542;48.360;10.958;2023-01-10T08:26:33;96619.47;;;3.13;99.79
56668;BME280;42542;48.360;10.958;2023-01-10T08:29:35;96619.47;;;3.13;100.00
56668;BME280;42542;48.360;10.958;2023-01-10T08:32:37;96623.78;;;3.14;100.00
56668;BME280;42542;48.360;10.958;2023-01-10T08:35:42;96629.91;;;3.15;100.00
56668;BME280;42542;48.360;10.958;2023-01-10T08:38:44;96636.06;;;3.16;100.00
56668;BME280;42542;48.360;10.958;2023-01-10T08:41:47;96645.53;;;3.18;100.00
56668;BME280;42542;48.360;10.958;2023-01-10T08:44:49;96649.78;;;3.21;100.00
56668;BME280;42542;48.360;10.958;2023-01-10T08:47:50;96653.06;;;3.24;100.00
56668;BME280;42542;48.360;10.958;2023-01-10T08:50:52;96663.31;;;3.29;100.00
56668;BME280;42542;48.360;10.958;2023-01-10T08:53:55;96657.06;;;3.30;100.00
56668;BME280;42542;48.360;10.958;2023-01-10T08:56:56;96657.69;;;3.33;100.00
56668;BME280;42542;48.360;10.958;2023-01-10T08:59:58;96650.41;;;3.37;100.00
56668;BME280;42542;48.360;10.958;2023-01-10T09:03:00;96654.50;;;3.41;100.00
56668;BME280;42542;48.360;10.958;2023-01-10T09:06:02;96656.84;;;3.45;100.00
56668;BME280;42542;48.360;10.958;2023-01-10T09:09:04;96667.09;;;3.50;100.00
56668;BME280;42542;48.360;10.958;2023-01-10T09:12:06;96671.31;;;3.52;100.00
56668;BME280;42542;48.360;10.958;2023-01-10T09:15:33;96684.41;;;3.54;100.00
56668;BME280;42542;48.360;10.958;2023-01-10T09:18:35;96692.97;;;3.58;100.00
56668;BME280;42542;48.360;10.958;2023-01-10T09:21:37;96694.78;;;3.57;100.00
56668;BME280;42542;48.360;10.958;2023-01-10T09:24:39;96694.44;;;3.62;99.04
56668;BME280;42542;48.360;10.958;2023-01-10T09:27:42;96716.34;;;3.64;98.53
56668;BME280;42542;48.360;10.958;2023-01-10T09:30:44;96721.28;;;3.68;98.40
56668;BME280;42542;48.360;10.958;2023-01-10T09:33:46;96711.47;;;3.70;98.07
56668;BME280;42542;48.360;10.958;2023-01-10T09:36:50;96723.63;;;3.73;97.98
56668;BME280;42542;48.360;10.958;2023-01-10T09:39:51;96726.97;;;3.75;98.14
56668;BME280;42542;48.360;10.958;2023-01-10T09:52:48;96732.19;;;3.89;97.09
56668;BME280;42542;48.360;10.958;2023-01-10T09:55:56;96728.34;;;3.93;96.95
56668;BME280;42542;48.360;10.958;2023-01-10T09:59:00;96723.91;;;3.93;95.22
56668;BME280;42542;48.360;10.958;2023-01-10T10:05:21;96727.06;;;3.99;94.31
56668;BME280;42542;48.360;10.958;2023-01-10T10:08:27;96726.00;;;4.01;92.88
56668;BME280;42542;48.360;10.958;2023-01-10T10:18:30;96712.00;;;4.12;90.74
56668;BME280;42542;48.360;10.958;2023-01-10T10:22:08;96716.13;;;4.16;90.24
56668;BME280;42542;48.360;10.958;2023-01-10T10:36:10;96744.78;;;4.22;87.46
56668;BME280;42542;48.360;10.958;2023-01-10T10:39:19;96758.00;;;4.22;86.68
56668;BME280;42542;48.360;10.958;2023-01-10T10:42:27;96757.06;;;4.23;86.83
56668;BME280;42542;48.360;10.958;2023-01-10T10:45:41;96749.03;;;4.24;86.85
56668;BME280;42542;48.360;10.958;2023-01-10T10:48:55;96749.03;;;4.24;86.04
56668;BME280;42542;48.360;10.958;2023-01-10T10:51:59;96734.19;;;4.22;86.38
56668;BME280;42542;48.360;10.958;2023-01-10T10:55:06;96736.19;;;4.31;86.78
56668;BME280;42542;48.360;10.958;2023-01-10T10:58:11;96739.69;;;4.31;87.45
56668;BME280;42542;48.360;10.958;2023-01-10T11:01:16;96741.59;;;4.29;86.33
56668;BME280;42542;48.360;10.958;2023-01-10T11:04:21;96744.22;;;4.29;86.58
56668;BME280;42542;48.360;10.958;2023-01-10T11:07:24;96741.47;;;4.31;85.57
56668;BME280;42542;48.360;10.958;2023-01-10T11:10:29;96741.34;;;4.32;86.94
56668;BME280;42542;48.360;10.958;2023-01-10T11:13:46;96752.56;;;4.36;86.63
56668;BME280;42542;48.360;10.958;2023-01-10T11:16:48;96749.72;;;4.39;86.90
56668;BME280;42542;48.360;10.958;2023-01-10T11:19:55;96760.06;;;4.42;87.39
56668;BME280;42542;48.360;10.958;2023-01-10T11:22:58;96759.63;;;4.48;87.54
56668;BME280;42542;48.360;10.958;2023-01-10T11:25:59;96751.66;;;4.48;86.13
56668;BME280;42542;48.360;10.958;2023-01-10T11:29:20;96749.66;;;4.52;86.44
56668;BME280;42542;48.360;10.958;2023-01-10T11:32:54;96753.66;;;4.57;86.10
56668;BME280;42542;48.360;10.958;2023-01-10T11:36:03;96747.31;;;4.60;86.22
56668;BME280;42542;48.360;10.958;2023-01-10T11:39:05;96743.69;;;4.61;84.70
56668;BME280;42542;48.360;10.958;2023-01-10T11:45:28;96748.53;;;4.67;83.99
56668;BME280;42542;48.360;10.958;2023-01-10T11:52:23;96742.06;;;4.71;82.46
56668;BME280;42542;48.360;10.958;2023-01-10T11:55:30;96747.97;;;4.75;82.68
56668;BME280;42542;48.360;10.958;2023-01-10T11:58:33;96738.84;;;4.79;83.80
56668;BME280;42542;48.360;10.958;2023-01-10T12:01:53;96737.53;;;4.84;82.12
56668;BME280;42542;48.360;10.958;2023-01-10T12:04:58;96725.75;;;4.88;82.38
56668;BME280;42542;48.360;10.958;2023-01-10T12:08:04;96723.00;;;4.90;81.44
56668;BME280;42542;48.360;10.958;2023-01-10T12:14:19;96737.34;;;4.98;81.47
56668;BME280;42542;48.360;10.958;2023-01-10T12:17:29;96741.78;;;4.98;80.92
56668;BME280;42542;48.360;10.958;2023-01-10T12:20:35;96740.72;;;5.00;81.90
56668;BME280;42542;48.360;10.958;2023-01-10T12:23:44;96726.41;;;5.03;81.27
56668;BME280;42542;48.360;10.958;2023-01-10T12:26:46;96730.63;;;5.05;81.08
56668;BME280;42542;48.360;10.958;2023-01-10T12:33:02;96732.56;;;5.03;80.60
56668;BME280;42542;48.360;10.958;2023-01-10T12:36:31;96747.38;;;5.06;79.75
56668;BME280;42542;48.360;10.958;2023-01-10T12:39:40;96733.84;;;4.98;80.27
56668;BME280;42542;48.360;10.958;2023-01-10T12:42:50;96737.13;;;5.01;80.79
56668;BME280;42542;48.360;10.958;2023-01-10T12:46:14;96739.88;;;5.00;80.91
56668;BME280;42542;48.360;10.958;2023-01-10T12:49:53;96735.78;;;4.96;81.66
56668;BME280;42542;48.360;10.958;2023-01-10T12:56:33;96742.25;;;4.92;82.17
56668;BME280;42542;48.360;10.958;2023-01-10T12:59:38;96746.72;;;4.91;82.39
56668;BME280;42542;48.360;10.958;2023-01-10T13:02:42;96731.75;;;4.90;83.34
56668;BME280;42542;48.360;10.958;2023-01-10T13:05:47;96736.97;;;4.92;82.46
56668;BME280;42542;48.360;10.958;2023-01-10T13:08:51;96736.34;;;4.88;81.34
56668;BME280;42542;48.360;10.958;2023-01-10T13:12:29;96739.72;;;4.90;82.42
56668;BME280;42542;48.360;10.958;2023-01-10T13:15:47;96739.97;;;4.87;81.28
56668;BME280;42542;48.360;10.958;2023-01-10T13:22:21;96752.34;;;4.87;80.48
56668;BME280;42542;48.360;10.958;2023-01-10T13:25:28;96737.53;;;4.84;80.00
56668;BME280;42542;48.360;10.958;2023-01-10T13:28:32;96734.66;;;4.87;79.73
56668;BME280;42542;48.360;10.958;2023-01-10T13:31:34;96734.31;;;4.92;80.04
56668;BME280;42542;48.360;10.958;2023-01-10T13:34:36;96742.78;;;4.97;79.46
56668;BME280;42542;48.360;10.958;2023-01-10T13:37:39;96738.19;;;4.99;79.39
56668;BME280;42542;48.360;10.958;2023-01-10T13:40:55;96737.13;;;5.01;79.29
56668;BME280;42542;48.360;10.958;2023-01-10T13:44:07;96736.16;;;5.02;78.15
56668;BME280;42542;48.360;10.958;2023-01-10T13:47:09;96732.56;;;5.03;77.75
56668;BME280;42542;48.360;10.958;2023-01-10T13:53:49;96748.22;;;5.06;75.23
56668;BME280;42542;48.360;10.958;2023-01-10T13:56:55;96736.66;;;5.07;76.44
56668;BME280;42542;48.360;10.958;2023-01-10T14:03:43;96733.78;;;5.10;70.99
56668;BME280;42542;48.360;10.958;2023-01-10T14:06:52;96735.34;;;5.13;72.83
56668;BME280;42542;48.360;10.958;2023-01-10T14:10:04;96739.69;;;5.14;71.99
56668;BME280;42542;48.360;10.958;2023-01-10T14:13:17;96736.09;;;5.15;70.12
56668;BME280;42542;48.360;10.958;2023-01-10T14:16:35;96729.09;;;5.14;68.35
56668;BME280;42542;48.360;10.958;2023-01-10T14:19:40;96732.69;;;5.13;67.19
56668;BME280;42542;48.360;10.958;2023-01-10T14:23:00;96734.38;;;5.14;68.33
56668;BME280;42542;48.360;10.958;2023-01-10T14:26:03;96732.59;;;5.15;67.14
56668;BME280;42542;48.360;10.958;2023-01-10T14:29:10;96736.09;;;5.15;67.95
56668;BME280;42542;48.360;10.958;2023-01-10T14:32:36;96740.53;;;5.15;68.07
56668;BME280;42542;48.360;10.958;2023-01-10T14:35:42;96741.38;;;5.15;70.02
56668;BME280;42542;48.360;10.958;2023-01-10T14:38:46;96740.31;;;5.18;69.40
56668;BME280;42542;48.360;10.958;2023-01-10T14:41:52;96728.25;;;5.14;70.99
56668;BME280;42542;48.360;10.958;2023-01-10T14:45:12;96740.16;;;5.19;69.34
56668;BME280;42542;48.360;10.958;2023-01-10T14:48:32;96748.13;;;5.19;69.63
56668;BME280;42542;48.360;10.958;2023-01-10T14:51:34;96748.00;;;5.21;70.07
56668;BME280;42542;48.360;10.958;2023-01-10T14:54:36;96743.66;;;5.20;69.33
56668;BME280;42542;48.360;10.958;2023-01-10T14:57:37;96751.03;;;5.16;68.91
56668;BME280;42542;48.360;10.958;2023-01-10T15:00:43;96753.88;;;5.13;69.07
56668;BME280;42542;48.360;10.958;2023-01-10T15:03:46;96753.19;;;5.11;69.88
56668;BME280;42542;48.360;10.958;2023-01-10T15:06:54;96754.13;;;5.10;70.41
56668;BME280;42542;48.360;10.958;2023-01-10T15:09:58;96752.56;;;5.07;70.50
56668;BME280;42542;48.360;10.958;2023-01-10T15:13:04;96748.22;;;5.06;71.52
56668;BME280;42542;48.360;10.958;2023-01-10T15:16:09;96749.31;;;5.04;71.44
56668;BME280;42542;48.360;10.958;2023-01-10T15:19:17;96744.13;;;5.02;72.28
56668;BME280;42542;48.360;10.958;2023-01-10T15:22:30;96747.22;;;4.96;72.49
56668;BME280;42542;48.360;10.958;2023-01-10T15:25:37;96738.91;;;4.90;72.43
56668;BME280;42542;48.360;10.958;2023-01-10T15:28:39;96726.94;;;4.84;72.69
56668;BME280;42542;48.360;10.958;2023-01-10T15:31:41;96731.75;;;4.79;72.57
56668;BME280;42542;48.360;10.958;2023-01-10T15:34:47;96729.09;;;4.79;72.76
56668;BME280;42542;48.360;10.958;2023-01-10T15:37:53;96731.25;;;4.74;72.96
56668;BME280;42542;48.360;10.958;2023-01-10T15:40:59;96735.16;;;4.68;73.04
56668;BME280;42542;48.360;10.958;2023-01-10T15:50:53;96727.63;;;4.51;73.80
56668;BME280;42542;48.360;10.958;2023-01-10T15:57:06;96727.56;;;4.40;74.85
56668;BME280;42542;48.360;10.958;2023-01-10T16:00:15;96726.94;;;4.37;75.10
56668;BME280;42542;48.360;10.958;2023-01-10T16:03:28;96724.75;;;4.30;75.40
56668;BME280;42542;48.360;10.958;2023-01-10T16:06:34;96714.72;;;4.23;75.32
56668;BME280;42542;48.360;10.958;2023-01-10T16:09:38;96714.19;;;4.18;75.71
56668;BME280;42542;48.360;10.958;2023-01-10T16:12:41;96725.13;;;4.13;76.16
56668;BME280;42542;48.360;10.958;2023-01-10T16:16:02;96724.50;;;4.10;77.07
56668;BME280;42542;48.360;10.958;2023-01-10T16:19:08;96718.56;;;4.06;77.38
56668;BME280;42542;48.360;10.958;2023-01-10T16:22:16;96717.13;;;4.02;77.22
56668;BME280;42542;48.360;10.958;2023-01-10T16:25:24;96710.03;;;3.90;77.72
56668;BME280;42542;48.360;10.958;2023-01-10T16:28:27;96719.66;;;3.91;78.02
56668;BME280;42542;48.360;10.958;2023-01-10T16:31:31;96716.72;;;3.83;78.13
56668;BME280;42542;48.360;10.958;2023-01-10T16:34:33;96715.47;;;3.76;78.10
56668;BME280;42542;48.360;10.958;2023-01-10T16:37:34;96712.50;;;3.68;78.51
56668;BME280;42542;48.360;10.958;2023-01-10T16:40:39;96709.69;;;3.58;78.36
56668;BME280;42542;48.360;10.958;2023-01-10T16:43:41;96701.53;;;3.48;79.39
56668;BME280;42542;48.360;10.958;2023-01-10T16:46:43;96699.44;;;3.41;80.08
56668;BME280;42542;48.360;10.958;2023-01-10T16:49:44;96697.22;;;3.35;80.20
56668;BME280;42542;48.360;10.958;2023-01-10T16:52:47;96691.50;;;3.28;80.83
56668;BME280;42542;48.360;10.958;2023-01-10T16:55:50;96688.34;;;3.23;81.61
56668;BME280;42542;48.360;10.958;2023-01-10T16:58:53;96687.81;;;3.18;81.81
56668;BME280;42542;48.360;10.958;2023-01-10T17:01:57;96688.31;;;3.10;82.01
56668;BME280;42542;48.360;10.958;2023-01-10T17:04:58;96687.69;;;3.07;82.36
56668;BME280;42542;48.360;10.958;2023-01-10T17:08:00;96683.78;;;3.00;82.28
56668;BME280;42542;48.360;10.958;2023-01-10T17:11:04;96682.41;;;2.94;82.44
56668;BME280;42542;48.360;10.958;2023-01-10T17:14:10;96691.56;;;2.89;82.87
56668;BME280;42542;48.360;10.958;2023-01-10T17:17:14;96684.06;;;2.83;82.40
56668;BME280;42542;48.360;10.958;2023-01-10T17:20:16;96688.91;;;2.76;82.94
56668;BME280;42542;48.360;10.958;2023-01-10T17:23:17;96684.06;;;2.70;83.24
56668;BME280;42542;48.360;10.958;2023-01-10T17:26:19;96680.31;;;2.60;83.69
56668;BME280;42542;48.360;10.958;2023-01-10T17:29:21;96693.66;;;2.58;83.69
56668;BME280;42542;48.360;10.958;2023-01-10T17:32:23;96695.72;;;2.53;83.77
56668;BME280;42542;48.360;10.958;2023-01-10T17:35:25;96692.75;;;2.45;84.05
56668;BME280;42542;48.360;10.958;2023-01-10T17:38:29;96692.22;;;2.40;84.29
56668;BME280;42542;48.360;10.958;2023-01-10T17:41:31;96696.09;;;2.34;84.83
56668;BME280;42542;48.360;10.958;2023-01-10T17:44:32;96691.97;;;2.30;85.29
56668;BME280;42542;48.360;10.958;2023-01-10T17:47:36;96676.53;;;2.24;85.50
56668;BME280;42542;48.360;10.958;2023-01-10T17:50:38;96673.34;;;2.19;85.17
56668;BME280;42542;48.360;10.958;2023-01-10T17:53:39;96678.94;;;2.15;85.48
56668;BME280;42542;48.360;10.958;2023-01-10T17:56:41;96676.59;;;2.10;85.51
56668;BME280;42542;48.360;10.958;2023-01-10T17:59:43;96677.84;;;2.05;85.98
56668;BME280;42542;48.360;10.958;2023-01-10T18:02:44;96674.66;;;2.00;86.16